createdAt,value
2017-08-08T00:02:11.191Z,6.75
2017-08-08T00:04:39.333Z,6.80
2017-08-08T00:07:07.485Z,6.95
2017-08-08T00:09:36.437Z,6.80
2017-08-08T00:12:04.587Z,7.30
2017-08-08T00:14:32.756Z,7.00
2017-08-08T00:17:00.930Z,6.93
2017-08-08T00:19:29.097Z,7.20
2017-08-08T00:21:57.242Z,7.68
2017-08-08T00:24:25.445Z,6.97
2017-08-08T00:26:53.617Z,7.40
2017-08-08T00:29:21.771Z,7.03
2017-08-08T00:31:50.730Z,7.30
2017-08-08T00:34:18.877Z,6.10
2017-08-08T00:36:47.030Z,6.70
2017-08-08T00:39:15.226Z,6.93
2017-08-08T00:41:43.378Z,7.25
2017-08-08T00:44:11.527Z,6.57
2017-08-08T00:46:39.721Z,6.85
2017-08-08T00:49:08.650Z,7.43
2017-08-08T00:51:36.813Z,7.50
2017-08-08T00:54:04.993Z,7.97
2017-08-08T00:56:33.161Z,7.60
2017-08-08T00:59:01.335Z,7.22
2017-08-08T01:01:29.521Z,7.35
2017-08-08T01:03:57.685Z,8.02
2017-08-08T01:06:25.830Z,7.43
2017-08-08T01:08:54.776Z,6.93
2017-08-08T01:11:22.963Z,7.53
2017-08-08T01:13:51.119Z,6.47
2017-08-08T01:16:19.316Z,7.20
2017-08-08T01:18:47.459Z,7.82
2017-08-08T01:21:15.629Z,7.15
2017-08-08T01:23:43.819Z,6.97
2017-08-08T01:26:11.967Z,7.40
2017-08-08T01:28:40.119Z,7.20
2017-08-08T01:31:09.070Z,6.53
2017-08-08T01:33:37.222Z,6.53
2017-08-08T01:36:05.378Z,6.30
2017-08-08T01:38:33.554Z,7.10
2017-08-08T01:41:01.713Z,6.93
2017-08-08T01:43:30.628Z,6.65
2017-08-08T01:45:58.816Z,6.32
2017-08-08T01:48:26.974Z,7.00
2017-08-08T01:50:55.419Z,7.10
2017-08-08T01:53:24.400Z,6.57
2017-08-08T01:55:52.563Z,6.35
2017-08-08T01:58:20.732Z,7.05
2017-08-08T02:00:48.936Z,6.45
2017-08-08T02:03:17.859Z,6.75
2017-08-08T02:05:46.006Z,6.60
2017-08-08T02:08:14.951Z,6.45
2017-08-08T02:10:43.122Z,6.50
2017-08-08T02:13:11.294Z,6.25
2017-08-08T02:15:39.472Z,7.50
2017-08-08T02:18:07.619Z,6.62
2017-08-08T02:20:35.766Z,7.40
2017-08-08T02:23:04.733Z,6.93
2017-08-08T02:25:32.877Z,7.70
2017-08-08T02:28:01.035Z,6.85
2017-08-08T02:30:29.234Z,7.25
2017-08-08T02:32:57.383Z,7.50
2017-08-08T02:35:25.549Z,7.30
2017-08-08T02:37:53.724Z,7.10
2017-08-08T02:40:21.875Z,6.70
2017-08-08T02:42:50.818Z,6.50
2017-08-08T02:45:19.017Z,7.30
2017-08-08T02:47:47.185Z,6.93
2017-08-08T02:50:15.357Z,7.20
2017-08-08T02:52:43.546Z,8.32
2017-08-08T02:55:11.726Z,7.40
2017-08-08T02:57:39.886Z,6.43
2017-08-08T03:00:08.063Z,6.22
2017-08-08T03:02:36.229Z,6.28
2017-08-08T03:05:04.391Z,7.10
2017-08-08T03:07:32.586Z,6.82
2017-08-08T03:10:00.769Z,7.45
2017-08-08T03:12:29.820Z,7.05
2017-08-08T03:14:58.009Z,7.07
2017-08-08T03:17:26.155Z,7.30
2017-08-08T03:19:54.302Z,7.07
2017-08-08T03:22:22.504Z,6.70
2017-08-08T03:24:50.649Z,6.75
2017-08-08T03:27:18.813Z,7.28
2017-08-08T03:29:46.995Z,6.72
2017-08-08T03:32:15.145Z,7.32
2017-08-08T03:34:43.286Z,6.20
2017-08-08T03:37:11.592Z,6.90
2017-08-08T03:39:39.739Z,6.70
2017-08-08T03:42:08.895Z,6.72
2017-08-08T03:44:37.081Z,7.05
2017-08-08T03:47:06.009Z,6.50
2017-08-08T03:49:34.157Z,6.85
2017-08-08T03:52:03.108Z,6.60
2017-08-08T03:54:31.268Z,6.40
2017-08-08T03:56:59.415Z,6.35
2017-08-08T03:59:27.617Z,6.70
2017-08-08T04:01:55.789Z,6.35
2017-08-08T04:04:23.933Z,6.70
2017-08-08T04:06:52.128Z,6.87
2017-08-08T04:09:20.277Z,7.15
2017-08-08T04:11:49.208Z,6.35
2017-08-08T04:14:17.409Z,6.95
2017-08-08T04:16:45.584Z,6.15
2017-08-08T04:19:13.752Z,6.57
2017-08-08T04:21:41.928Z,6.53
2017-08-08T04:24:10.096Z,6.85
2017-08-08T04:26:39.006Z,6.22
2017-08-08T04:29:07.183Z,6.45
2017-08-08T04:31:35.334Z,7.30
2017-08-08T04:34:04.270Z,6.47
2017-08-08T04:36:32.480Z,6.32
2017-08-08T04:39:00.627Z,6.45
2017-08-08T04:41:28.774Z,5.80
2017-08-08T04:43:56.951Z,6.78
2017-08-08T04:46:25.114Z,7.05
2017-08-08T04:48:53.265Z,6.55
2017-08-08T04:51:22.238Z,5.85
2017-08-08T04:53:50.385Z,6.10
2017-08-08T04:56:18.545Z,6.65
2017-08-08T04:58:46.745Z,6.93
2017-08-08T05:01:14.894Z,6.25
2017-08-08T05:03:43.060Z,5.90
2017-08-08T05:06:11.257Z,6.80
2017-08-08T05:08:39.417Z,6.22
2017-08-08T05:11:07.584Z,6.70
2017-08-08T05:13:35.767Z,5.80
2017-08-08T05:16:03.926Z,6.75
2017-08-08T05:18:32.090Z,6.00
2017-08-08T05:21:01.026Z,6.65
2017-08-08T05:23:29.175Z,5.80
2017-08-08T05:25:57.330Z,6.60
2017-08-08T05:28:25.539Z,5.60
2017-08-08T05:30:53.720Z,6.00
2017-08-08T05:33:21.892Z,5.95
2017-08-08T05:35:50.076Z,6.45
2017-08-08T05:38:18.223Z,5.30
2017-08-08T05:40:46.366Z,5.70
2017-08-08T05:43:15.311Z,5.97
2017-08-08T05:45:43.455Z,5.15
2017-08-08T05:48:11.611Z,5.18
2017-08-08T05:50:40.572Z,5.47
2017-08-08T05:53:08.717Z,5.15
2017-08-08T05:55:36.885Z,5.35
2017-08-08T05:58:05.079Z,5.28
2017-08-08T06:00:33.244Z,4.80
2017-08-08T06:03:01.397Z,4.97
2017-08-08T06:05:29.605Z,5.20
2017-08-08T06:07:57.745Z,5.28
2017-08-08T06:10:25.918Z,5.20
2017-08-08T06:12:54.111Z,5.55
2017-08-08T06:15:22.280Z,5.05
2017-08-08T06:17:50.468Z,5.18
2017-08-08T06:20:18.657Z,5.20
2017-08-08T06:22:46.803Z,4.85
2017-08-08T06:25:14.946Z,6.00
2017-08-08T06:27:43.901Z,5.30
2017-08-08T06:30:12.052Z,5.00
2017-08-08T06:32:40.220Z,4.62
2017-08-08T06:35:08.407Z,4.95
2017-08-08T06:37:36.550Z,5.43
2017-08-08T06:40:04.699Z,4.93
2017-08-08T06:42:32.889Z,5.10
2017-08-08T06:45:01.798Z,5.00
2017-08-08T06:47:29.965Z,5.45
2017-08-08T06:49:58.154Z,5.05
2017-08-08T06:52:26.322Z,5.12
2017-08-08T06:54:54.485Z,5.10
2017-08-08T06:57:22.661Z,4.32
2017-08-08T06:59:50.806Z,4.50
2017-08-08T07:02:18.954Z,4.93
2017-08-08T07:04:47.153Z,4.62
2017-08-08T07:07:15.304Z,5.00
2017-08-08T07:09:43.470Z,4.75
2017-08-08T07:12:11.670Z,5.35
2017-08-08T07:14:39.846Z,5.90
2017-08-08T07:17:07.999Z,4.87
2017-08-08T07:19:36.175Z,4.87
2017-08-08T07:22:04.340Z,5.03
2017-08-08T07:24:32.501Z,4.85
2017-08-08T07:27:00.693Z,5.10
2017-08-08T07:29:28.839Z,4.85
2017-08-08T07:31:57.006Z,4.70
2017-08-08T07:34:25.205Z,4.70
2017-08-08T07:36:53.369Z,4.62
2017-08-08T07:39:21.514Z,4.55
2017-08-08T07:41:50.456Z,4.82
2017-08-08T07:44:18.626Z,4.32
2017-08-08T07:46:46.775Z,4.80
2017-08-08T07:49:14.981Z,5.00
2017-08-08T07:51:43.147Z,4.57
2017-08-08T07:54:11.293Z,4.78
2017-08-08T07:56:39.478Z,4.60
2017-08-08T07:59:07.631Z,4.60
2017-08-08T08:01:35.804Z,4.18
2017-08-08T08:04:04.742Z,4.70
2017-08-08T08:06:32.911Z,4.57
2017-08-08T08:09:01.070Z,4.40
2017-08-08T08:11:29.264Z,4.43
2017-08-08T08:13:57.438Z,4.53
2017-08-08T08:16:25.595Z,4.80
2017-08-08T08:18:53.828Z,4.20
2017-08-08T08:21:21.978Z,4.10
2017-08-08T08:23:50.162Z,4.27
2017-08-08T08:26:18.334Z,3.93
2017-08-08T08:28:46.483Z,3.57
2017-08-08T08:31:14.653Z,4.10
2017-08-08T08:33:42.835Z,3.70
2017-08-08T08:36:11.033Z,4.03
2017-08-08T08:38:39.218Z,3.90
2017-08-08T08:41:07.413Z,4.03
2017-08-08T08:43:36.326Z,3.73
2017-08-08T08:46:04.494Z,4.17
2017-08-08T08:48:32.667Z,4.10
2017-08-08T08:51:00.845Z,3.50
2017-08-08T08:53:28.998Z,3.60
2017-08-08T08:55:57.194Z,3.50
2017-08-08T08:58:25.344Z,3.00
2017-08-08T09:00:54.259Z,4.20
2017-08-08T09:03:22.432Z,3.70
2017-08-08T09:05:50.579Z,4.33
2017-08-08T09:08:18.750Z,3.50
2017-08-08T09:10:46.950Z,3.10
2017-08-08T09:13:15.125Z,3.73
2017-08-08T09:15:43.295Z,3.37
2017-08-08T09:18:12.238Z,3.87
2017-08-08T09:20:40.405Z,3.17
2017-08-08T09:23:08.573Z,3.43
2017-08-08T09:25:36.771Z,3.13
2017-08-08T09:28:04.919Z,3.20
2017-08-08T09:30:33.064Z,3.40
2017-08-08T09:33:02.743Z,3.20
2017-08-08T09:35:30.914Z,3.53
2017-08-08T09:37:59.085Z,3.00
2017-08-08T09:40:27.278Z,3.30
2017-08-08T09:42:55.426Z,3.50
2017-08-08T09:45:23.575Z,3.10
2017-08-08T09:47:51.773Z,3.37
2017-08-08T09:50:19.922Z,3.17
2017-08-08T09:52:48.072Z,3.60
2017-08-08T09:55:17.032Z,4.00
2017-08-08T09:57:45.205Z,3.50
2017-08-08T10:00:13.375Z,3.70
2017-08-08T10:02:41.585Z,3.30
2017-08-08T10:05:10.534Z,3.57
2017-08-08T10:07:38.691Z,3.57
2017-08-08T10:10:06.888Z,3.63
2017-08-08T10:12:35.039Z,4.00
2017-08-08T10:15:03.211Z,3.50
2017-08-08T10:17:31.399Z,3.60
2017-08-08T10:19:59.547Z,3.47
2017-08-08T10:22:27.685Z,3.30
2017-08-08T10:24:56.640Z,3.53
2017-08-08T10:27:24.788Z,3.50
2017-08-08T10:29:52.938Z,3.37
2017-08-08T10:32:21.874Z,3.83
2017-08-08T10:34:50.018Z,3.60
2017-08-08T10:37:18.166Z,3.60
2017-08-08T10:39:46.368Z,3.90
2017-08-08T10:42:14.675Z,4.60
2017-08-08T10:44:42.818Z,4.17
2017-08-08T10:47:10.998Z,4.63
2017-08-08T10:49:39.163Z,4.50
2017-08-08T10:52:07.319Z,4.33
2017-08-08T10:54:35.500Z,4.27
2017-08-08T10:57:03.680Z,4.70
2017-08-08T10:59:31.823Z,4.00
2017-08-08T11:02:00.014Z,4.83
2017-08-08T11:04:28.161Z,5.13
2017-08-08T11:06:56.322Z,4.67
2017-08-08T11:09:24.505Z,5.63
2017-08-08T11:11:52.673Z,4.70
2017-08-08T11:14:20.846Z,4.83
2017-08-08T11:16:49.024Z,4.53
2017-08-08T11:19:17.187Z,5.10
2017-08-08T11:21:45.361Z,5.37
2017-08-08T11:24:13.548Z,4.97
2017-08-08T11:26:41.717Z,5.60
2017-08-08T11:29:09.861Z,5.70
2017-08-08T11:31:38.062Z,5.70
2017-08-08T11:34:06.210Z,5.60
2017-08-08T11:36:34.381Z,5.53
2017-08-08T11:39:02.586Z,5.63
2017-08-08T11:41:30.750Z,5.30
2017-08-08T11:43:58.899Z,5.60
2017-08-08T11:46:27.114Z,5.23
2017-08-08T11:48:55.286Z,5.13
2017-08-08T11:51:23.460Z,5.10
2017-08-08T11:53:51.642Z,5.32
2017-08-08T11:56:19.800Z,5.15
2017-08-08T11:58:47.942Z,5.23
2017-08-08T12:01:16.137Z,4.87
2017-08-08T12:03:44.290Z,5.93
2017-08-08T12:06:12.469Z,5.23
2017-08-08T12:08:40.674Z,5.83
2017-08-08T12:11:08.830Z,5.65
2017-08-08T12:13:36.984Z,4.73
2017-08-08T12:16:05.192Z,5.40
2017-08-08T12:18:33.373Z,5.15
2017-08-08T12:21:01.525Z,5.10
2017-08-08T12:23:29.726Z,5.75
2017-08-08T12:25:57.880Z,5.30
2017-08-08T12:28:26.044Z,5.62
2017-08-08T12:30:54.250Z,5.47
2017-08-08T12:33:22.423Z,5.45
2017-08-08T12:35:50.605Z,5.35
2017-08-08T12:38:18.782Z,6.20
2017-08-08T12:40:46.954Z,5.30
2017-08-08T12:43:15.105Z,5.10
2017-08-08T12:45:43.300Z,5.45
2017-08-08T12:48:11.451Z,4.95
2017-08-08T12:50:39.625Z,4.95
2017-08-08T12:53:07.810Z,5.65
2017-08-08T12:55:35.969Z,5.90
2017-08-08T12:58:04.145Z,5.30
2017-08-08T13:00:32.322Z,5.07
2017-08-08T13:03:00.499Z,5.00
2017-08-08T13:05:28.660Z,5.10
2017-08-08T13:07:56.862Z,5.35
2017-08-08T13:10:25.013Z,5.43
2017-08-08T13:12:53.173Z,5.20
2017-08-08T13:15:22.140Z,4.87
2017-08-08T13:17:50.295Z,4.68
2017-08-08T13:20:18.450Z,5.12
2017-08-08T13:22:47.050Z,4.53
2017-08-08T13:25:15.207Z,5.20
2017-08-08T13:27:43.380Z,5.05
2017-08-08T13:30:11.592Z,5.30
2017-08-08T13:32:39.743Z,5.40
2017-08-08T13:35:07.894Z,5.50
2017-08-08T13:37:36.100Z,5.45
2017-08-08T13:40:04.259Z,5.75
2017-08-08T13:42:32.438Z,5.50
2017-08-08T13:45:00.638Z,5.47
2017-08-08T13:47:28.809Z,6.07
2017-08-08T13:49:56.989Z,5.32
2017-08-08T13:52:25.162Z,5.35
2017-08-08T13:54:53.322Z,5.43
2017-08-08T13:57:21.474Z,6.30
2017-08-08T13:59:49.684Z,5.62
2017-08-08T14:02:17.839Z,5.57
2017-08-08T14:04:45.996Z,5.85
2017-08-08T14:07:14.183Z,6.05
2017-08-08T14:09:42.354Z,4.75
2017-08-08T14:12:10.516Z,5.85
2017-08-08T14:14:38.734Z,5.40
2017-08-08T14:17:06.895Z,5.65
2017-08-08T14:19:35.076Z,5.95
2017-08-08T14:22:03.277Z,5.45
2017-08-08T14:24:31.447Z,5.72
2017-08-08T14:26:59.602Z,5.57
2017-08-08T14:29:27.784Z,5.05
2017-08-08T14:31:55.935Z,5.50
2017-08-08T14:34:24.083Z,5.55
2017-08-08T14:36:52.283Z,5.45
2017-08-08T14:39:20.466Z,5.30
2017-08-08T14:41:48.647Z,4.85
2017-08-08T14:44:16.849Z,5.18
2017-08-08T14:46:45.785Z,5.18
2017-08-08T14:49:13.933Z,4.75
2017-08-08T14:51:42.890Z,5.03
2017-08-08T14:54:11.042Z,5.20
2017-08-08T14:56:39.218Z,4.97
2017-08-08T14:59:07.391Z,5.20
2017-08-08T15:01:35.563Z,5.37
2017-08-08T15:04:03.733Z,5.25
2017-08-08T15:06:31.915Z,5.75
2017-08-08T15:09:00.062Z,5.20
2017-08-08T15:11:28.238Z,5.35
2017-08-08T15:13:56.425Z,6.62
2017-08-08T15:16:24.594Z,6.03
2017-08-08T15:18:52.742Z,5.18
2017-08-08T15:21:21.699Z,4.82
2017-08-08T15:23:49.851Z,4.18
2017-08-08T15:26:18.019Z,4.07
2017-08-08T15:28:46.190Z,4.20
2017-08-08T15:31:14.359Z,4.15
2017-08-08T15:33:42.535Z,4.78
2017-08-08T15:36:10.710Z,4.25
2017-08-08T15:38:38.856Z,4.20
2017-08-08T15:41:07.021Z,3.80
2017-08-08T15:43:35.988Z,4.20
2017-08-08T15:46:04.159Z,4.80
2017-08-08T15:48:32.308Z,4.03
2017-08-08T15:51:00.508Z,3.42
2017-08-08T15:53:28.662Z,4.10
2017-08-08T15:55:56.813Z,4.03
2017-08-08T15:58:25.022Z,4.22
2017-08-08T16:00:53.179Z,4.50
2017-08-08T16:03:21.344Z,3.55
2017-08-08T16:05:49.537Z,3.60
2017-08-08T16:08:17.708Z,3.62
2017-08-08T16:10:45.881Z,3.35
2017-08-08T16:13:14.055Z,3.50
2017-08-08T16:15:42.226Z,4.53
2017-08-08T16:18:10.389Z,4.25
2017-08-08T16:20:38.586Z,4.20
2017-08-08T16:23:06.747Z,3.97
2017-08-08T16:25:34.891Z,3.42
2017-08-08T16:28:03.843Z,3.53
2017-08-08T16:30:31.998Z,3.80
2017-08-08T16:33:00.165Z,3.90
2017-08-08T16:35:28.339Z,3.87
2017-08-08T16:37:56.487Z,3.92
2017-08-08T16:40:25.398Z,3.95
2017-08-08T16:42:53.599Z,4.32
2017-08-08T16:45:21.766Z,5.00
2017-08-08T16:47:49.910Z,4.45
2017-08-08T16:50:18.109Z,4.10
2017-08-08T16:52:46.282Z,3.90
2017-08-08T16:55:14.435Z,3.90
2017-08-08T16:57:42.612Z,4.20
2017-08-08T17:00:10.768Z,4.20
2017-08-08T17:02:39.683Z,4.15
2017-08-08T17:05:07.889Z,4.28
2017-08-08T17:07:36.058Z,4.12
2017-08-08T17:10:04.209Z,4.35
2017-08-08T17:12:32.395Z,3.85
2017-08-08T17:15:00.553Z,4.80
2017-08-08T17:17:28.718Z,5.30
2017-08-08T17:19:57.677Z,3.83
2017-08-08T17:22:25.825Z,3.62
2017-08-08T17:24:53.992Z,3.83
2017-08-08T17:27:22.205Z,4.30
2017-08-08T17:29:50.373Z,4.30
2017-08-08T17:32:18.538Z,5.75
2017-08-08T17:34:46.731Z,4.20
2017-08-08T17:37:14.931Z,4.72
2017-08-08T17:39:43.099Z,4.10
2017-08-08T17:42:11.313Z,4.62
2017-08-08T17:44:39.465Z,4.80
2017-08-08T17:47:07.614Z,3.87
2017-08-08T17:49:36.581Z,5.37
2017-08-08T17:52:04.852Z,4.93
2017-08-08T17:54:33.023Z,4.28
2017-08-08T17:57:01.206Z,5.20
2017-08-08T17:59:29.402Z,5.22
2017-08-08T18:01:57.679Z,4.90
2017-08-08T18:04:25.876Z,5.25
2017-08-08T18:06:54.072Z,6.07
2017-08-08T18:09:23.024Z,6.55
2017-08-08T18:11:51.200Z,7.20
2017-08-08T18:14:20.138Z,6.60
2017-08-08T18:16:48.307Z,6.22
2017-08-08T18:19:16.486Z,8.82
2017-08-08T18:21:44.683Z,7.22
2017-08-08T18:24:12.851Z,8.48
2017-08-08T18:26:41.033Z,11.20
2017-08-08T18:29:09.208Z,10.90
2017-08-08T18:31:37.389Z,11.30
2017-08-08T18:34:05.601Z,9.82
2017-08-08T18:36:33.774Z,12.65
2017-08-08T18:39:01.927Z,9.93
2017-08-08T18:41:30.110Z,14.38
2017-08-08T18:43:58.282Z,12.68
2017-08-08T18:46:26.435Z,16.90
2017-08-08T18:48:55.198Z,14.10
2017-08-08T18:51:23.401Z,13.80
2017-08-08T18:53:51.630Z,15.60
2017-08-08T18:56:20.575Z,16.35
2017-08-08T18:58:48.752Z,14.38
2017-08-08T19:01:16.930Z,13.50
2017-08-08T19:03:45.111Z,12.50
2017-08-08T19:06:13.270Z,14.43
2017-08-08T19:08:41.422Z,13.50
2017-08-08T19:11:09.615Z,13.32
2017-08-08T19:13:37.788Z,13.75
2017-08-08T19:16:05.969Z,12.65
2017-08-08T19:18:34.198Z,14.52
2017-08-08T19:21:03.140Z,14.35
2017-08-08T19:23:31.324Z,15.55
2017-08-08T19:25:59.532Z,16.58
2017-08-08T19:28:27.708Z,15.70
2017-08-08T19:30:55.866Z,15.80
2017-08-08T19:33:24.066Z,15.38
2017-08-08T19:35:52.241Z,17.58
2017-08-08T19:38:20.418Z,17.98
2017-08-08T19:40:48.602Z,15.93
2017-08-08T19:43:16.775Z,14.95
2017-08-08T19:45:45.701Z,14.98
2017-08-08T19:48:13.904Z,15.25
2017-08-08T19:50:42.077Z,14.60
2017-08-08T19:53:10.253Z,17.25
2017-08-08T19:55:38.453Z,14.20
2017-08-08T19:58:06.612Z,15.15
2017-08-08T20:00:34.785Z,15.00
2017-08-08T20:03:02.970Z,14.25
2017-08-08T20:05:31.148Z,15.52
2017-08-08T20:07:59.303Z,15.80
2017-08-08T20:10:27.485Z,15.32
2017-08-08T20:12:55.642Z,16.40
2017-08-08T20:15:23.797Z,15.75
2017-08-08T20:17:51.976Z,16.45
2017-08-08T20:20:20.130Z,17.58
2017-08-08T20:22:49.052Z,17.12
2017-08-08T20:25:17.555Z,17.00
2017-08-08T20:27:45.725Z,16.23
2017-08-08T20:30:13.886Z,15.55
2017-08-08T20:32:42.066Z,17.50
2017-08-08T20:35:10.221Z,15.70
2017-08-08T20:37:38.389Z,16.60
2017-08-08T20:40:06.574Z,16.80
2017-08-08T20:42:34.745Z,16.73
2017-08-08T20:45:02.894Z,15.50
2017-08-08T20:47:31.835Z,17.00
2017-08-08T20:50:00.006Z,16.37
2017-08-08T20:52:28.185Z,16.00
2017-08-08T20:54:56.362Z,17.00
2017-08-08T20:57:24.554Z,15.80
2017-08-08T20:59:52.706Z,15.05
2017-08-08T21:02:20.891Z,16.60
2017-08-08T21:04:49.057Z,15.43
2017-08-08T21:07:17.205Z,17.20
2017-08-08T21:09:45.413Z,22.08
2017-08-08T21:12:13.586Z,16.42
2017-08-08T21:14:41.757Z,16.55
2017-08-08T21:17:09.963Z,15.75
2017-08-08T21:19:38.118Z,16.83
2017-08-08T21:22:06.276Z,16.80
2017-08-08T21:24:34.474Z,16.42
2017-08-08T21:27:02.635Z,16.65
2017-08-08T21:29:30.813Z,16.80
2017-08-08T21:31:58.991Z,16.12
2017-08-08T21:34:27.165Z,17.08
2017-08-08T21:36:55.320Z,16.92
2017-08-08T21:39:23.526Z,16.10
2017-08-08T21:41:51.697Z,17.12
2017-08-08T21:44:19.864Z,16.80
2017-08-08T21:46:48.044Z,17.73
2017-08-08T21:49:16.221Z,17.73
2017-08-08T21:51:44.370Z,17.55
2017-08-08T21:54:13.172Z,18.55
2017-08-08T21:56:41.328Z,18.10
2017-08-08T21:59:09.478Z,17.52
2017-08-08T22:01:37.683Z,18.35
2017-08-08T22:04:05.850Z,17.30
2017-08-08T22:06:34.006Z,18.25
2017-08-08T22:09:02.188Z,16.90
2017-08-08T22:11:30.349Z,17.17
2017-08-08T22:13:58.536Z,17.75
2017-08-08T22:16:26.733Z,15.93
2017-08-08T22:18:54.884Z,17.48
2017-08-08T22:21:23.035Z,16.05
2017-08-08T22:23:51.993Z,17.33
2017-08-08T22:26:20.165Z,17.92
2017-08-08T22:28:48.326Z,17.55
2017-08-08T22:31:16.533Z,18.00
2017-08-08T22:33:44.704Z,16.50
2017-08-08T22:36:12.860Z,17.23
2017-08-08T22:38:41.039Z,20.08
2017-08-08T22:41:09.212Z,19.15
2017-08-08T22:43:37.365Z,18.42
2017-08-08T22:46:05.546Z,17.50
2017-08-08T22:48:33.695Z,16.15
2017-08-08T22:51:01.849Z,18.48
2017-08-08T22:53:30.806Z,17.33
2017-08-08T22:55:58.977Z,16.98
2017-08-08T22:58:27.150Z,18.20
2017-08-08T23:00:55.350Z,17.17
2017-08-08T23:03:23.502Z,19.35
2017-08-08T23:05:51.673Z,19.00
2017-08-08T23:08:19.852Z,18.20
2017-08-08T23:10:48.026Z,19.35
2017-08-08T23:13:16.190Z,19.08
2017-08-08T23:15:44.393Z,19.85
2017-08-08T23:18:13.331Z,20.30
2017-08-08T23:20:41.505Z,19.52
2017-08-08T23:23:09.714Z,19.40
2017-08-08T23:25:37.868Z,18.30
2017-08-08T23:28:06.026Z,19.33
2017-08-08T23:30:34.206Z,18.92
2017-08-08T23:33:02.391Z,21.48
2017-08-08T23:35:30.550Z,19.05
2017-08-08T23:37:58.754Z,19.55
2017-08-08T23:40:26.909Z,19.55
2017-08-08T23:42:55.079Z,19.67
2017-08-08T23:45:23.260Z,20.05
2017-08-08T23:47:51.418Z,20.67
2017-08-08T23:50:19.571Z,20.08
2017-08-08T23:52:48.539Z,20.73
2017-08-08T23:55:16.712Z,21.60
2017-08-08T23:57:44.858Z,21.55
